Time,TemperatureF,DewpointF,PressureIn,WindDirection,WindDirectionDegrees,WindSpeedMPH,WindSpeedGustMPH,Humidity,HourlyPrecipIn,Conditions,Clouds,dailyrainin,SoftwareType,DateUTC
2013-05-02 00:03:00,37.5,36.2,30.16,North,352,6.0,-999.0,95,0.00,,,0.00,WeatherSnoop3.0,2013-05-02 05:03:00,
2013-05-02 00:08:00,37.4,36.1,30.17,WSW,242,3.0,-999.0,95,0.00,,,0.00,WeatherSnoop3.0,2013-05-02 05:08:00,
2013-05-02 00:13:00,37.1,35.8,30.17,NNE,23,14.0,-999.0,95,0.00,,,0.00,WeatherSnoop3.0,2013-05-02 05:13:00,
2013-05-02 00:18:00,36.9,35.6,30.16,North,5,12.0,-999.0,95,0.00,,,0.00,WeatherSnoop3.0,2013-05-02 05:18:00,
2013-05-02 00:23:00,36.8,35.5,30.16,NE,40,15.0,-999.0,95,0.00,,,0.00,WeatherSnoop3.0,2013-05-02 05:23:00,
2013-05-02 00:28:00,36.7,35.4,30.15,NE,46,17.0,-999.0,95,0.00,,,0.00,WeatherSnoop3.0,2013-05-02 05:28:00,
2013-05-02 00:33:00,36.6,35.3,30.15,NW,318,8.0,-999.0,95,0.00,,,0.00,WeatherSnoop3.0,2013-05-02 05:33:00,
2013-05-02 00:38:00,36.5,35.2,30.18,NNE,32,4.0,-999.0,95,0.00,,,0.00,WeatherSnoop3.0,2013-05-02 05:38:00,
2013-05-02 00:43:00,36.6,35.3,30.23,North,349,4.0,-999.0,95,0.32,,,0.02,WeatherSnoop3.0,2013-05-02 05:43:00,
2013-05-02 00:48:00,36.5,35.2,30.16,NE,43,21.0,-999.0,95,0.11,,,0.02,WeatherSnoop3.0,2013-05-02 05:48:00,
2013-05-02 00:53:00,36.3,35.0,30.19,NE,56,4.0,-999.0,95,0.07,,,0.03,WeatherSnoop3.0,2013-05-02 05:53:00,
2013-05-02 00:58:00,36.2,35.2,30.17,NNE,13,11.0,-999.0,96,0.07,,,0.03,WeatherSnoop3.0,2013-05-02 05:58:00,
2013-05-02 01:03:00,36.1,35.1,30.14,NNE,32,16.0,-999.0,96,0.05,,,0.03,WeatherSnoop3.0,2013-05-02 06:03:00,
2013-05-02 01:08:00,36.1,35.1,30.15,NNW,347,16.0,-999.0,96,0.04,,,0.04,WeatherSnoop3.0,2013-05-02 06:08:00,
2013-05-02 01:13:00,36.1,35.1,30.18,NE,44,10.0,-999.0,96,0.04,,,0.04,WeatherSnoop3.0,2013-05-02 06:13:00,
2013-05-02 01:18:00,36.1,35.1,30.22,NNE,16,4.0,-999.0,96,0.04,,,0.04,WeatherSnoop3.0,2013-05-02 06:18:00,
2013-05-02 01:23:00,36.3,35.3,30.23,North,356,6.0,-999.0,96,0.00,,,0.04,WeatherSnoop3.0,2013-05-02 06:23:00,
2013-05-02 01:28:00,36.3,35.3,30.18,NNE,19,14.0,-999.0,96,0.00,,,0.04,WeatherSnoop3.0,2013-05-02 06:28:00,
2013-05-02 01:33:00,36.4,35.4,30.18,North,11,7.0,-999.0,96,0.00,,,0.04,WeatherSnoop3.0,2013-05-02 06:33:00,
2013-05-02 01:38:00,36.4,35.4,30.20,North,356,6.0,-999.0,96,0.00,,,0.04,WeatherSnoop3.0,2013-05-02 06:38:00,
2013-05-02 01:43:00,36.4,35.4,30.21,NNE,30,4.0,-999.0,96,0.00,,,0.04,WeatherSnoop3.0,2013-05-02 06:43:00,
2013-05-02 01:48:00,36.5,35.5,30.20,NNE,19,8.0,-999.0,96,0.00,,,0.04,WeatherSnoop3.0,2013-05-02 06:48:00,
2013-05-02 01:53:00,36.5,35.5,30.20,NNE,24,15.0,-999.0,96,0.00,,,0.04,WeatherSnoop3.0,2013-05-02 06:53:00,
2013-05-02 01:58:00,36.6,35.6,30.19,North,351,8.0,-999.0,96,0.00,,,0.04,WeatherSnoop3.0,2013-05-02 06:58:00,
2013-05-02 02:03:00,36.5,35.5,30.19,North,11,16.0,-999.0,96,0.00,,,0.04,WeatherSnoop3.0,2013-05-02 07:03:00,
2013-05-02 02:08:00,36.6,35.6,30.20,NNE,27,12.0,-999.0,96,0.00,,,0.04,WeatherSnoop3.0,2013-05-02 07:08:00,
2013-05-02 02:13:00,36.6,35.6,30.20,NE,34,5.0,-999.0,96,0.00,,,0.04,WeatherSnoop3.0,2013-05-02 07:13:00,
2013-05-02 02:18:00,36.6,35.6,30.21,SSE,158,6.0,-999.0,96,0.00,,,0.04,WeatherSnoop3.0,2013-05-02 07:18:00,
2013-05-02 02:23:00,36.7,35.7,30.21,NNE,28,11.0,-999.0,96,0.00,,,0.04,WeatherSnoop3.0,2013-05-02 07:23:00,
2013-05-02 02:28:00,36.7,35.7,30.20,NNE,26,11.0,-999.0,96,0.00,,,0.04,WeatherSnoop3.0,2013-05-02 07:28:00,
2013-05-02 02:33:00,36.7,35.7,30.21,NNE,27,7.0,-999.0,96,0.00,,,0.04,WeatherSnoop3.0,2013-05-02 07:33:00,
2013-05-02 02:38:00,36.7,35.7,30.21,North,4,7.0,-999.0,96,0.00,,,0.04,WeatherSnoop3.0,2013-05-02 07:38:00,
2013-05-02 02:43:00,36.7,35.7,30.20,NNW,346,10.0,-999.0,96,0.00,,,0.04,WeatherSnoop3.0,2013-05-02 07:43:00,
2013-05-02 02:48:00,36.7,35.7,30.20,NNW,340,11.0,-999.0,96,0.00,,,0.04,WeatherSnoop3.0,2013-05-02 07:48:00,
2013-05-02 02:53:00,36.7,35.7,30.21,NE,51,5.0,-999.0,96,0.00,,,0.04,WeatherSnoop3.0,2013-05-02 07:53:00,
2013-05-02 02:58:00,36.7,35.7,30.21,NNW,342,8.0,-999.0,96,0.00,,,0.04,WeatherSnoop3.0,2013-05-02 07:58:00,
2013-05-02 03:03:00,36.7,35.7,30.21,NNE,12,13.0,-999.0,96,0.00,,,0.04,WeatherSnoop3.0,2013-05-02 08:03:00,
2013-05-02 03:08:00,36.7,35.7,30.21,North,354,7.0,-999.0,96,0.00,,,0.04,WeatherSnoop3.0,2013-05-02 08:08:00,
2013-05-02 03:13:00,36.8,35.8,30.22,NNE,22,12.0,-999.0,96,0.00,,,0.04,WeatherSnoop3.0,2013-05-02 08:13:00,
2013-05-02 03:18:00,36.7,35.4,30.21,ENE,59,13.0,-999.0,95,0.00,,,0.04,WeatherSnoop3.0,2013-05-02 08:18:00,
2013-05-02 03:23:00,36.7,35.4,30.23,NNE,26,6.0,-999.0,95,0.00,,,0.04,WeatherSnoop3.0,2013-05-02 08:23:00,
2013-05-02 03:28:00,36.5,35.2,30.22,North,354,12.0,-999.0,95,0.00,,,0.04,WeatherSnoop3.0,2013-05-02 08:28:00,
2013-05-02 03:33:00,36.4,34.8,30.22,NE,39,8.0,-999.0,94,0.00,,,0.04,WeatherSnoop3.0,2013-05-02 08:33:00,
2013-05-02 03:38:00,36.4,35.1,30.23,NNE,13,11.0,-999.0,95,0.00,,,0.04,WeatherSnoop3.0,2013-05-02 08:38:00,
2013-05-02 03:43:00,36.3,35.0,30.23,NE,56,8.0,-999.0,95,0.00,,,0.04,WeatherSnoop3.0,2013-05-02 08:43:00,
2013-05-02 03:48:00,36.2,34.9,30.23,NNE,28,9.0,-999.0,95,0.00,,,0.04,WeatherSnoop3.0,2013-05-02 08:48:00,
2013-05-02 03:53:00,36.1,34.8,30.23,NNE,13,9.0,-999.0,95,0.00,,,0.04,WeatherSnoop3.0,2013-05-02 08:53:00,
2013-05-02 03:58:00,36.1,34.8,30.25,NE,53,10.0,-999.0,95,0.00,,,0.04,WeatherSnoop3.0,2013-05-02 08:58:00,
2013-05-02 04:03:00,36.0,34.7,30.25,NNE,16,8.0,-999.0,95,0.00,,,0.04,WeatherSnoop3.0,2013-05-02 09:03:00,
2013-05-02 04:08:00,36.0,34.7,30.24,NNE,23,13.0,-999.0,95,0.00,,,0.04,WeatherSnoop3.0,2013-05-02 09:08:00,
2013-05-02 04:13:00,35.9,34.6,30.25,NNE,20,7.0,-999.0,95,0.00,,,0.04,WeatherSnoop3.0,2013-05-02 09:13:00,
2013-05-02 04:18:00,36.0,34.7,30.26,NNE,19,11.0,-999.0,95,0.00,,,0.04,WeatherSnoop3.0,2013-05-02 09:18:00,
2013-05-02 04:23:00,35.9,34.6,30.26,NE,47,15.0,-999.0,95,0.00,,,0.04,WeatherSnoop3.0,2013-05-02 09:23:00,
2013-05-02 04:28:00,35.9,34.3,30.25,NNE,30,14.0,-999.0,94,0.00,,,0.04,WeatherSnoop3.0,2013-05-02 09:28:00,
2013-05-02 04:33:00,35.9,34.3,30.26,NNE,12,20.0,-999.0,94,0.00,,,0.04,WeatherSnoop3.0,2013-05-02 09:33:00,
2013-05-02 04:38:00,35.9,34.3,30.26,NNE,32,6.0,-999.0,94,0.00,,,0.04,WeatherSnoop3.0,2013-05-02 09:38:00,
2013-05-02 04:43:00,35.9,34.3,30.25,NNW,330,8.0,-999.0,94,0.00,,,0.04,WeatherSnoop3.0,2013-05-02 09:43:00,
2013-05-02 04:48:00,35.9,34.6,30.26,North,358,9.0,-999.0,95,0.00,,,0.04,WeatherSnoop3.0,2013-05-02 09:48:00,
2013-05-02 04:53:00,35.9,34.6,30.27,NNE,24,15.0,-999.0,95,0.00,,,0.04,WeatherSnoop3.0,2013-05-02 09:53:00,
2013-05-02 04:58:00,35.9,34.6,30.28,NNE,29,5.0,-999.0,95,0.00,,,0.04,WeatherSnoop3.0,2013-05-02 09:58:00,
2013-05-02 05:03:00,35.7,34.4,30.26,NNW,328,6.0,-999.0,95,0.00,,,0.04,WeatherSnoop3.0,2013-05-02 10:03:00,
2013-05-02 05:08:00,35.5,34.2,30.26,NW,311,3.0,-999.0,95,0.00,,,0.04,WeatherSnoop3.0,2013-05-02 10:08:00,
2013-05-02 05:13:00,35.2,33.9,30.28,NNE,32,8.0,-999.0,95,0.00,,,0.04,WeatherSnoop3.0,2013-05-02 10:13:00,
2013-05-02 05:18:00,35.1,33.8,30.28,NNE,32,9.0,-999.0,95,0.00,,,0.04,WeatherSnoop3.0,2013-05-02 10:18:00,
2013-05-02 05:23:00,35.0,33.7,30.28,NE,39,11.0,-999.0,95,0.00,,,0.04,WeatherSnoop3.0,2013-05-02 10:23:00,
2013-05-02 05:28:00,34.9,33.6,30.27,NNE,27,15.0,-999.0,95,0.00,,,0.04,WeatherSnoop3.0,2013-05-02 10:28:00,
2013-05-02 05:33:00,34.8,33.5,30.31,NNE,26,3.0,-999.0,95,0.00,,,0.04,WeatherSnoop3.0,2013-05-02 10:33:00,
2013-05-02 05:38:00,34.8,33.5,30.31,North,359,12.0,-999.0,95,0.00,,,0.04,WeatherSnoop3.0,2013-05-02 10:38:00,
2013-05-02 05:43:00,34.6,33.3,30.25,North,5,12.0,-999.0,95,0.00,,,0.04,WeatherSnoop3.0,2013-05-02 10:43:00,
2013-05-02 05:48:00,34.5,33.2,30.27,North,11,13.0,-999.0,95,0.00,,,0.04,WeatherSnoop3.0,2013-05-02 10:48:00,
2013-05-02 05:53:00,34.5,33.2,30.28,NNE,13,20.0,-999.0,95,0.00,,,0.04,WeatherSnoop3.0,2013-05-02 10:53:00,
2013-05-02 05:58:00,34.4,33.4,30.29,NNW,340,10.0,-999.0,96,0.00,,,0.04,WeatherSnoop3.0,2013-05-02 10:58:00,
2013-05-02 06:03:00,34.4,33.4,30.28,North,8,15.0,-999.0,96,0.00,,,0.04,WeatherSnoop3.0,2013-05-02 11:03:00,
2013-05-02 06:08:00,34.5,33.5,30.28,NW,326,6.0,-999.0,96,0.00,,,0.04,WeatherSnoop3.0,2013-05-02 11:08:00,
2013-05-02 06:13:00,34.5,33.2,30.29,NNW,345,7.0,-999.0,95,0.00,,,0.04,WeatherSnoop3.0,2013-05-02 11:13:00,
2013-05-02 06:18:00,34.5,33.2,30.29,West,276,10.0,-999.0,95,0.00,,,0.04,WeatherSnoop3.0,2013-05-02 11:18:00,
2013-05-02 06:23:00,34.5,33.2,30.29,NE,51,9.0,-999.0,95,0.00,,,0.04,WeatherSnoop3.0,2013-05-02 11:23:00,
2013-05-02 06:28:00,34.5,33.2,30.30,NW,311,4.0,-999.0,95,0.00,,,0.04,WeatherSnoop3.0,2013-05-02 11:28:00,
2013-05-02 06:33:00,34.4,33.1,30.31,NNW,329,7.0,-999.0,95,0.00,,,0.04,WeatherSnoop3.0,2013-05-02 11:33:00,
2013-05-02 06:38:00,34.4,33.1,30.32,NNE,13,16.0,-999.0,95,0.00,,,0.04,WeatherSnoop3.0,2013-05-02 11:38:00,
2013-05-02 06:43:00,34.4,33.1,30.31,North,1,11.0,-999.0,95,0.00,,,0.04,WeatherSnoop3.0,2013-05-02 11:43:00,
2013-05-02 06:48:00,34.4,33.1,30.32,NNW,340,9.0,-999.0,95,0.00,,,0.04,WeatherSnoop3.0,2013-05-02 11:48:00,
2013-05-02 06:53:00,34.4,33.1,30.32,NNE,20,6.0,-999.0,95,0.00,,,0.04,WeatherSnoop3.0,2013-05-02 11:53:00,
2013-05-02 06:58:00,34.5,33.2,30.31,North,355,12.0,-999.0,95,0.00,,,0.04,WeatherSnoop3.0,2013-05-02 11:58:00,
2013-05-02 07:03:00,34.5,33.2,30.32,ENE,59,8.0,-999.0,95,0.00,,,0.04,WeatherSnoop3.0,2013-05-02 12:03:00,
2013-05-02 07:08:00,34.7,33.4,30.33,NNE,19,10.0,-999.0,95,0.00,,,0.04,WeatherSnoop3.0,2013-05-02 12:08:00,
2013-05-02 07:13:00,34.7,33.4,30.34,NNW,333,15.0,-999.0,95,0.00,,,0.04,WeatherSnoop3.0,2013-05-02 12:13:00,
2013-05-02 07:18:00,34.9,33.4,30.34,NNE,24,13.0,-999.0,94,0.00,,,0.04,WeatherSnoop3.0,2013-05-02 12:18:00,
2013-05-02 07:23:00,34.9,33.4,30.34,NNE,15,15.0,-999.0,94,0.00,,,0.04,WeatherSnoop3.0,2013-05-02 12:23:00,
2013-05-02 07:28:00,35.0,33.5,30.34,NNE,26,16.0,-999.0,94,0.00,,,0.04,WeatherSnoop3.0,2013-05-02 12:28:00,
2013-05-02 07:33:00,35.1,33.6,30.33,NNE,30,13.0,-999.0,94,0.00,,,0.04,WeatherSnoop3.0,2013-05-02 12:33:00,
2013-05-02 07:38:00,35.1,33.3,30.34,NW,311,6.0,-999.0,93,0.00,,,0.04,WeatherSnoop3.0,2013-05-02 12:38:00,
2013-05-02 07:43:00,35.1,33.3,30.38,NE,34,12.0,-999.0,93,0.00,,,0.04,WeatherSnoop3.0,2013-05-02 12:43:00,
2013-05-02 07:48:00,35.1,33.6,30.36,NNE,19,14.0,-999.0,94,0.00,,,0.04,WeatherSnoop3.0,2013-05-02 12:48:00,
2013-05-02 07:53:00,35.0,33.5,30.35,NNW,342,8.0,-999.0,94,0.00,,,0.04,WeatherSnoop3.0,2013-05-02 12:53:00,
2013-05-02 07:58:00,34.9,33.4,30.34,NNE,15,13.0,-999.0,94,0.00,,,0.04,WeatherSnoop3.0,2013-05-02 12:58:00,
2013-05-02 08:03:00,34.8,33.3,30.33,NNW,330,16.0,-999.0,94,0.00,,,0.04,WeatherSnoop3.0,2013-05-02 13:03:00,
2013-05-02 08:08:00,34.5,33.0,30.34,NNE,20,12.0,-999.0,94,0.00,,,0.04,WeatherSnoop3.0,2013-05-02 13:08:00,
2013-05-02 08:13:00,34.3,32.8,30.34,North,354,18.0,-999.0,94,0.00,,,0.04,WeatherSnoop3.0,2013-05-02 13:13:00,
2013-05-02 08:18:00,34.1,32.8,30.35,ENE,57,9.0,-999.0,95,0.00,,,0.04,WeatherSnoop3.0,2013-05-02 13:18:00,
2013-05-02 08:23:00,33.9,32.6,30.35,NE,47,17.0,-999.0,95,0.00,,,0.04,WeatherSnoop3.0,2013-05-02 13:23:00,
2013-05-02 08:28:00,33.7,32.4,30.34,NNW,343,14.0,-999.0,95,0.00,,,0.04,WeatherSnoop3.0,2013-05-02 13:28:00,
2013-05-02 08:33:00,33.8,32.5,30.35,NNW,341,10.0,-999.0,95,0.00,,,0.04,WeatherSnoop3.0,2013-05-02 13:33:00,
2013-05-02 08:38:00,34.0,32.7,30.36,NW,316,2.0,-999.0,95,0.00,,,0.04,WeatherSnoop3.0,2013-05-02 13:38:00,
2013-05-02 08:43:00,34.0,32.7,30.37,NE,47,6.0,-999.0,95,0.00,,,0.04,WeatherSnoop3.0,2013-05-02 13:43:00,
2013-05-02 08:48:00,34.0,32.7,30.38,NE,43,1.0,-999.0,95,0.00,,,0.04,WeatherSnoop3.0,2013-05-02 13:48:00,
2013-05-02 08:53:00,34.0,32.7,30.39,NE,37,16.0,-999.0,95,0.00,,,0.04,WeatherSnoop3.0,2013-05-02 13:53:00,
2013-05-02 08:58:00,34.1,33.1,30.38,North,351,16.0,-999.0,96,0.00,,,0.04,WeatherSnoop3.0,2013-05-02 13:58:00,
2013-05-02 09:03:00,34.2,33.2,30.39,NNE,26,13.0,-999.0,96,0.00,,,0.04,WeatherSnoop3.0,2013-05-02 14:03:00,
2013-05-02 09:08:00,34.1,33.1,30.40,ENE,63,12.0,-999.0,96,0.00,,,0.04,WeatherSnoop3.0,2013-05-02 14:08:00,
2013-05-02 09:13:00,34.1,33.1,30.40,NNE,23,6.0,-999.0,96,0.00,,,0.04,WeatherSnoop3.0,2013-05-02 14:13:00,
2013-05-02 09:18:00,34.2,33.2,30.40,NNE,13,11.0,-999.0,96,0.00,,,0.04,WeatherSnoop3.0,2013-05-02 14:18:00,
2013-05-02 09:23:00,34.3,33.3,30.41,NW,320,8.0,-999.0,96,0.00,,,0.04,WeatherSnoop3.0,2013-05-02 14:23:00,
2013-05-02 09:28:00,34.4,33.4,30.41,NNE,16,14.0,-999.0,96,0.00,,,0.04,WeatherSnoop3.0,2013-05-02 14:28:00,
2013-05-02 09:33:00,34.5,33.5,30.39,NNE,30,15.0,-999.0,96,0.00,,,0.04,WeatherSnoop3.0,2013-05-02 14:33:00,
2013-05-02 09:38:00,34.6,33.3,30.39,ENE,63,9.0,-999.0,95,0.00,,,0.04,WeatherSnoop3.0,2013-05-02 14:38:00,
2013-05-02 09:43:00,34.6,33.3,30.39,NNW,330,13.0,-999.0,95,0.00,,,0.04,WeatherSnoop3.0,2013-05-02 14:43:00,
2013-05-02 09:48:00,34.7,33.4,30.39,NNW,338,9.0,-999.0,95,0.00,,,0.04,WeatherSnoop3.0,2013-05-02 14:48:00,
2013-05-02 09:53:00,34.9,33.6,30.39,North,353,11.0,-999.0,95,0.00,,,0.04,WeatherSnoop3.0,2013-05-02 14:53:00,
2013-05-02 09:58:00,34.8,33.5,30.39,NE,56,7.0,-999.0,95,0.00,,,0.04,WeatherSnoop3.0,2013-05-02 14:58:00,
2013-05-02 10:03:00,34.8,33.5,30.39,NNW,335,6.0,-999.0,95,0.00,,,0.04,WeatherSnoop3.0,2013-05-02 15:03:00,
2013-05-02 10:08:00,34.9,33.6,30.38,NE,44,10.0,-999.0,95,0.00,,,0.04,WeatherSnoop3.0,2013-05-02 15:08:00,
2013-05-02 10:13:00,35.1,33.8,30.38,NNW,334,8.0,-999.0,95,0.00,,,0.04,WeatherSnoop3.0,2013-05-02 15:13:00,
2013-05-02 10:18:00,35.2,33.9,30.39,NNE,13,8.0,-999.0,95,0.00,,,0.04,WeatherSnoop3.0,2013-05-02 15:18:00,
2013-05-02 10:23:00,35.3,34.0,30.38,SSW,195,4.0,-999.0,95,0.00,,,0.04,WeatherSnoop3.0,2013-05-02 15:23:00,
2013-05-02 10:28:00,35.5,34.2,30.39,NE,47,8.0,-999.0,95,0.00,,,0.04,WeatherSnoop3.0,2013-05-02 15:28:00,
2013-05-02 10:33:00,35.6,34.3,30.39,East,88,13.0,-999.0,95,0.00,,,0.04,WeatherSnoop3.0,2013-05-02 15:33:00,
2013-05-02 10:38:00,35.6,34.0,30.40,NE,39,7.0,-999.0,94,0.00,,,0.04,WeatherSnoop3.0,2013-05-02 15:38:00,
2013-05-02 10:43:00,35.6,34.0,30.40,North,349,9.0,-999.0,94,0.00,,,0.04,WeatherSnoop3.0,2013-05-02 15:43:00,
2013-05-02 10:48:00,35.7,34.1,30.40,West,271,6.0,-999.0,94,0.00,,,0.04,WeatherSnoop3.0,2013-05-02 15:48:00,
2013-05-02 10:53:00,35.9,34.3,30.40,North,5,11.0,-999.0,94,0.00,,,0.04,WeatherSnoop3.0,2013-05-02 15:53:00,
2013-05-02 10:58:00,36.1,34.3,30.41,NNW,346,7.0,-999.0,93,0.00,,,0.04,WeatherSnoop3.0,2013-05-02 15:58:00,
2013-05-02 11:03:00,36.2,34.1,30.41,NNE,13,13.0,-999.0,92,0.00,,,0.04,WeatherSnoop3.0,2013-05-02 16:03:00,
2013-05-02 11:08:00,36.4,34.0,30.41,NE,44,16.0,-999.0,91,0.00,,,0.04,WeatherSnoop3.0,2013-05-02 16:08:00,
2013-05-02 11:13:00,36.6,34.2,30.42,North,359,11.0,-999.0,91,0.00,,,0.04,WeatherSnoop3.0,2013-05-02 16:13:00,
2013-05-02 11:18:00,36.8,34.4,30.42,NNE,26,16.0,-999.0,91,0.00,,,0.04,WeatherSnoop3.0,2013-05-02 16:18:00,
2013-05-02 11:23:00,36.9,34.5,30.42,NNW,328,8.0,-999.0,91,0.00,,,0.04,WeatherSnoop3.0,2013-05-02 16:23:00,
2013-05-02 11:28:00,37.0,34.1,30.41,NNE,12,14.0,-999.0,89,0.00,,,0.04,WeatherSnoop3.0,2013-05-02 16:28:00,
2013-05-02 11:33:00,37.1,34.2,30.41,North,8,16.0,-999.0,89,0.00,,,0.04,WeatherSnoop3.0,2013-05-02 16:33:00,
2013-05-02 11:38:00,37.3,34.4,30.40,NNE,23,12.0,-999.0,89,0.00,,,0.04,WeatherSnoop3.0,2013-05-02 16:38:00,
2013-05-02 11:43:00,37.4,34.2,30.41,North,5,16.0,-999.0,88,0.00,,,0.04,WeatherSnoop3.0,2013-05-02 16:43:00,
2013-05-02 11:48:00,37.6,34.7,30.42,NNE,25,19.0,-999.0,89,0.00,,,0.04,WeatherSnoop3.0,2013-05-02 16:48:00,
2013-05-02 11:53:00,37.7,33.9,30.43,NE,37,17.0,-999.0,86,0.00,,,0.04,WeatherSnoop3.0,2013-05-02 16:53:00,
2013-05-02 11:58:00,37.6,34.4,30.43,WNW,293,3.0,-999.0,88,0.00,,,0.04,WeatherSnoop3.0,2013-05-02 16:58:00,
2013-05-02 12:03:00,37.5,34.6,30.42,NE,48,18.0,-999.0,89,0.00,,,0.04,WeatherSnoop3.0,2013-05-02 17:03:00,
2013-05-02 12:08:00,37.5,34.6,30.43,NE,40,13.0,-999.0,89,0.00,,,0.04,WeatherSnoop3.0,2013-05-02 17:08:00,
2013-05-02 12:13:00,37.6,34.4,30.42,NE,37,10.0,-999.0,88,0.00,,,0.04,WeatherSnoop3.0,2013-05-02 17:13:00,
2013-05-02 12:18:00,37.7,33.9,30.42,NE,36,15.0,-999.0,86,0.00,,,0.04,WeatherSnoop3.0,2013-05-02 17:18:00,
2013-05-02 12:23:00,37.8,34.6,30.43,NNE,30,7.0,-999.0,88,0.00,,,0.04,WeatherSnoop3.0,2013-05-02 17:23:00,
2013-05-02 12:28:00,38.0,34.8,30.42,NNE,13,6.0,-999.0,88,0.00,,,0.04,WeatherSnoop3.0,2013-05-02 17:28:00,
2013-05-02 12:33:00,38.3,34.8,30.42,WNW,285,4.0,-999.0,87,0.00,,,0.04,WeatherSnoop3.0,2013-05-02 17:33:00,
2013-05-02 12:38:00,38.5,35.0,30.42,North,1,6.0,-999.0,87,0.00,,,0.04,WeatherSnoop3.0,2013-05-02 17:38:00,
2013-05-02 12:43:00,38.7,35.2,30.42,NE,43,13.0,-999.0,87,0.00,,,0.04,WeatherSnoop3.0,2013-05-02 17:43:00,
2013-05-02 12:48:00,38.8,35.3,30.42,NE,40,9.0,-999.0,87,0.00,,,0.04,WeatherSnoop3.0,2013-05-02 17:48:00,
2013-05-02 12:53:00,39.3,35.5,30.41,North,1,10.0,-999.0,86,0.00,,,0.04,WeatherSnoop3.0,2013-05-02 17:53:00,
2013-05-02 12:58:00,39.9,36.1,30.41,ENE,63,4.0,-999.0,86,0.00,,,0.04,WeatherSnoop3.0,2013-05-02 17:58:00,
2013-05-02 13:03:00,40.2,36.6,30.41,NE,48,10.0,-999.0,87,0.00,,,0.04,WeatherSnoop3.0,2013-05-02 18:03:00,
2013-05-02 13:08:00,40.5,36.1,30.41,NNW,338,7.0,-999.0,84,0.00,,,0.04,WeatherSnoop3.0,2013-05-02 18:08:00,
2013-05-02 13:13:00,40.9,34.9,30.41,NW,319,8.0,-999.0,79,0.00,,,0.04,WeatherSnoop3.0,2013-05-02 18:13:00,
2013-05-02 13:18:00,41.1,34.8,30.41,NNW,333,6.0,-999.0,78,0.00,,,0.04,WeatherSnoop3.0,2013-05-02 18:18:00,
2013-05-02 13:23:00,41.3,34.3,30.40,NNW,347,5.0,-999.0,76,0.00,,,0.04,WeatherSnoop3.0,2013-05-02 18:23:00,
2013-05-02 13:28:00,41.8,34.1,30.41,NNE,19,9.0,-999.0,74,0.00,,,0.04,WeatherSnoop3.0,2013-05-02 18:28:00,
2013-05-02 13:33:00,42.3,34.6,30.41,NNE,19,13.0,-999.0,74,0.00,,,0.04,WeatherSnoop3.0,2013-05-02 18:33:00,
2013-05-02 13:38:00,42.5,32.7,30.41,NE,39,9.0,-999.0,68,0.00,,,0.04,WeatherSnoop3.0,2013-05-02 18:38:00,
2013-05-02 13:43:00,42.7,33.6,30.41,North,11,10.0,-999.0,70,0.00,,,0.04,WeatherSnoop3.0,2013-05-02 18:43:00,
2013-05-02 13:48:00,43.0,34.3,30.41,NW,311,11.0,-999.0,71,0.00,,,0.04,WeatherSnoop3.0,2013-05-02 18:48:00,
2013-05-02 13:53:00,43.5,33.3,30.41,ENE,71,11.0,-999.0,67,0.00,,,0.04,WeatherSnoop3.0,2013-05-02 18:53:00,
2013-05-02 13:58:00,43.9,32.9,30.41,WNW,290,6.0,-999.0,65,0.00,,,0.04,WeatherSnoop3.0,2013-05-02 18:58:00,
2013-05-02 14:03:00,44.4,32.6,30.41,NNE,30,16.0,-999.0,63,0.00,,,0.04,WeatherSnoop3.0,2013-05-02 19:03:00,
2013-05-02 14:08:00,44.9,33.5,30.41,NNE,12,11.0,-999.0,64,0.00,,,0.04,WeatherSnoop3.0,2013-05-02 19:08:00,
2013-05-02 14:13:00,45.4,34.7,30.40,North,9,6.0,-999.0,66,0.00,,,0.04,WeatherSnoop3.0,2013-05-02 19:13:00,
2013-05-02 14:18:00,46.0,33.7,30.40,NNE,16,7.0,-999.0,62,0.00,,,0.04,WeatherSnoop3.0,2013-05-02 19:18:00,
2013-05-02 14:23:00,46.1,32.6,30.40,NE,47,16.0,-999.0,59,0.00,,,0.04,WeatherSnoop3.0,2013-05-02 19:23:00,
2013-05-02 14:28:00,46.7,33.6,30.40,NNE,18,9.0,-999.0,60,0.00,,,0.04,WeatherSnoop3.0,2013-05-02 19:28:00,
2013-05-02 14:33:00,46.7,32.7,30.40,North,355,7.0,-999.0,58,0.00,,,0.04,WeatherSnoop3.0,2013-05-02 19:33:00,
2013-05-02 14:38:00,46.9,33.8,30.40,NNW,338,9.0,-999.0,60,0.00,,,0.04,WeatherSnoop3.0,2013-05-02 19:38:00,
2013-05-02 14:43:00,47.2,30.5,30.40,NNE,32,17.0,-999.0,52,0.00,,,0.04,WeatherSnoop3.0,2013-05-02 19:43:00,
2013-05-02 14:48:00,47.7,33.2,30.40,NNW,342,11.0,-999.0,57,0.00,,,0.04,WeatherSnoop3.0,2013-05-02 19:48:00,
2013-05-02 14:53:00,47.5,30.8,30.40,NNE,18,9.0,-999.0,52,0.00,,,0.04,WeatherSnoop3.0,2013-05-02 19:53:00,
2013-05-02 14:58:00,47.6,30.4,30.40,NNW,331,7.0,-999.0,51,0.00,,,0.04,WeatherSnoop3.0,2013-05-02 19:58:00,
2013-05-02 15:03:00,47.7,32.3,30.40,NNE,12,11.0,-999.0,55,0.00,,,0.04,WeatherSnoop3.0,2013-05-02 20:03:00,
2013-05-02 15:08:00,47.7,31.9,30.40,NNE,30,11.0,-999.0,54,0.00,,,0.04,WeatherSnoop3.0,2013-05-02 20:08:00,
2013-05-02 15:13:00,47.9,32.1,30.40,North,357,10.0,-999.0,54,0.00,,,0.04,WeatherSnoop3.0,2013-05-02 20:13:00,
2013-05-02 15:18:00,48.0,32.2,30.40,North,4,5.0,-999.0,54,0.00,,,0.04,WeatherSnoop3.0,2013-05-02 20:18:00,
2013-05-02 15:23:00,48.5,31.7,30.40,SW,215,7.0,-999.0,52,0.00,,,0.04,WeatherSnoop3.0,2013-05-02 20:23:00,
2013-05-02 15:28:00,48.2,29.9,30.40,North,354,14.0,-999.0,49,0.00,,,0.04,WeatherSnoop3.0,2013-05-02 20:28:00,
2013-05-02 15:33:00,48.0,32.2,30.40,NNE,13,8.0,-999.0,54,0.00,,,0.04,WeatherSnoop3.0,2013-05-02 20:33:00,
2013-05-02 15:38:00,47.9,31.1,30.40,NNE,19,18.0,-999.0,52,0.00,,,0.04,WeatherSnoop3.0,2013-05-02 20:38:00,
2013-05-02 15:43:00,47.9,29.7,30.39,NNE,24,7.0,-999.0,49,0.00,,,0.04,WeatherSnoop3.0,2013-05-02 20:43:00,
2013-05-02 15:48:00,47.7,27.9,30.39,ENE,57,12.0,-999.0,46,0.00,,,0.04,WeatherSnoop3.0,2013-05-02 20:48:00,
2013-05-02 15:53:00,47.4,27.1,30.39,North,8,18.0,-999.0,45,0.00,,,0.04,WeatherSnoop3.0,2013-05-02 20:53:00,
2013-05-02 15:58:00,48.0,29.8,30.39,NE,39,14.0,-999.0,49,0.00,,,0.04,WeatherSnoop3.0,2013-05-02 20:58:00,
2013-05-02 16:03:00,48.3,30.0,30.39,North,349,8.0,-999.0,49,0.00,,,0.04,WeatherSnoop3.0,2013-05-02 21:03:00,
2013-05-02 16:08:00,48.6,33.2,30.39,NNE,30,15.0,-999.0,55,0.00,,,0.04,WeatherSnoop3.0,2013-05-02 21:08:00,
2013-05-02 16:13:00,48.5,31.7,30.39,North,6,15.0,-999.0,52,0.00,,,0.04,WeatherSnoop3.0,2013-05-02 21:13:00,
2013-05-02 16:18:00,48.8,31.5,30.38,North,11,12.0,-999.0,51,0.00,,,0.04,WeatherSnoop3.0,2013-05-02 21:18:00,
2013-05-02 16:23:00,49.1,29.8,30.38,NNE,20,14.0,-999.0,47,0.00,,,0.04,WeatherSnoop3.0,2013-05-02 21:23:00,
2013-05-02 16:28:00,48.6,28.8,30.39,NNE,12,11.0,-999.0,46,0.00,,,0.04,WeatherSnoop3.0,2013-05-02 21:28:00,
2013-05-02 16:33:00,48.1,27.8,30.39,NE,44,15.0,-999.0,45,0.00,,,0.04,WeatherSnoop3.0,2013-05-02 21:33:00,
2013-05-02 16:38:00,48.2,29.4,30.38,NE,49,11.0,-999.0,48,0.00,,,0.04,WeatherSnoop3.0,2013-05-02 21:38:00,
2013-05-02 16:43:00,48.3,28.0,30.38,NE,41,14.0,-999.0,45,0.00,,,0.04,WeatherSnoop3.0,2013-05-02 21:43:00,
2013-05-02 16:48:00,48.5,30.2,30.38,North,356,13.0,-999.0,49,0.00,,,0.04,WeatherSnoop3.0,2013-05-02 21:48:00,
2013-05-02 16:53:00,48.9,30.6,30.38,NNE,26,13.0,-999.0,49,0.00,,,0.04,WeatherSnoop3.0,2013-05-02 21:53:00,
2013-05-02 16:58:00,48.8,26.7,30.38,NNW,338,11.0,-999.0,42,0.00,,,0.04,WeatherSnoop3.0,2013-05-02 21:58:00,
2013-05-02 17:03:00,48.8,28.4,30.38,NE,34,16.0,-999.0,45,0.00,,,0.04,WeatherSnoop3.0,2013-05-02 22:03:00,
2013-05-02 17:08:00,48.7,26.6,30.38,NNE,15,9.0,-999.0,42,0.00,,,0.04,WeatherSnoop3.0,2013-05-02 22:08:00,
2013-05-02 17:13:00,49.0,27.5,30.38,North,352,11.0,-999.0,43,0.00,,,0.04,WeatherSnoop3.0,2013-05-02 22:13:00,
2013-05-02 17:18:00,49.2,26.5,30.38,NE,34,19.0,-999.0,41,0.00,,,0.04,WeatherSnoop3.0,2013-05-02 22:18:00,
2013-05-02 17:23:00,49.1,27.6,30.38,North,11,8.0,-999.0,43,0.00,,,0.04,WeatherSnoop3.0,2013-05-02 22:23:00,
2013-05-02 17:28:00,48.9,30.1,30.38,NNE,32,19.0,-999.0,48,0.00,,,0.04,WeatherSnoop3.0,2013-05-02 22:28:00,
2013-05-02 17:33:00,49.0,28.0,30.38,ENE,68,14.0,-999.0,44,0.00,,,0.04,WeatherSnoop3.0,2013-05-02 22:33:00,
2013-05-02 17:38:00,49.1,29.2,30.38,NNE,13,14.0,-999.0,46,0.00,,,0.04,WeatherSnoop3.0,2013-05-02 22:38:00,
2013-05-02 17:43:00,49.3,29.4,30.38,NNE,26,14.0,-999.0,46,0.00,,,0.04,WeatherSnoop3.0,2013-05-02 22:43:00,
2013-05-02 17:48:00,49.4,32.0,30.37,NNE,28,12.0,-999.0,51,0.00,,,0.04,WeatherSnoop3.0,2013-05-02 22:48:00,
2013-05-02 17:53:00,49.5,31.6,30.37,NNW,340,11.0,-999.0,50,0.00,,,0.04,WeatherSnoop3.0,2013-05-02 22:53:00,
2013-05-02 17:58:00,49.4,31.1,30.37,NE,37,15.0,-999.0,49,0.00,,,0.04,WeatherSnoop3.0,2013-05-02 22:58:00,
2013-05-02 18:03:00,49.4,31.1,30.37,North,353,14.0,-999.0,49,0.00,,,0.04,WeatherSnoop3.0,2013-05-02 23:03:00,
2013-05-02 18:08:00,49.4,32.0,30.37,NNE,33,11.0,-999.0,51,0.00,,,0.04,WeatherSnoop3.0,2013-05-02 23:08:00,
2013-05-02 18:13:00,49.5,32.1,30.37,NNE,20,17.0,-999.0,51,0.00,,,0.04,WeatherSnoop3.0,2013-05-02 23:13:00,
2013-05-02 18:18:00,49.6,32.2,30.37,North,8,10.0,-999.0,51,0.00,,,0.04,WeatherSnoop3.0,2013-05-02 23:18:00,
2013-05-02 18:23:00,49.8,31.9,30.37,ENE,66,5.0,-999.0,50,0.00,,,0.04,WeatherSnoop3.0,2013-05-02 23:23:00,
2013-05-02 18:28:00,49.4,32.5,30.37,NE,44,7.0,-999.0,52,0.00,,,0.04,WeatherSnoop3.0,2013-05-02 23:28:00,
2013-05-02 18:33:00,49.3,32.4,30.36,NW,322,8.0,-999.0,52,0.00,,,0.04,WeatherSnoop3.0,2013-05-02 23:33:00,
2013-05-02 18:38:00,49.4,33.0,30.37,North,10,10.0,-999.0,53,0.00,,,0.04,WeatherSnoop3.0,2013-05-02 23:38:00,
2013-05-02 18:43:00,49.3,32.4,30.36,NE,50,6.0,-999.0,52,0.00,,,0.04,WeatherSnoop3.0,2013-05-02 23:43:00,
2013-05-02 18:48:00,49.2,32.3,30.36,ENE,60,15.0,-999.0,52,0.00,,,0.04,WeatherSnoop3.0,2013-05-02 23:48:00,
2013-05-02 18:53:00,49.0,31.2,30.36,NNE,27,8.0,-999.0,50,0.00,,,0.04,WeatherSnoop3.0,2013-05-02 23:53:00,
2013-05-02 18:58:00,48.8,32.0,30.37,ENE,57,10.0,-999.0,52,0.00,,,0.04,WeatherSnoop3.0,2013-05-02 23:58:00,
2013-05-02 19:03:00,48.7,30.9,30.37,NNE,13,11.0,-999.0,50,0.00,,,0.04,WeatherSnoop3.0,2013-05-03 00:03:00,
2013-05-02 19:08:00,48.5,31.7,30.36,NE,55,9.0,-999.0,52,0.00,,,0.04,WeatherSnoop3.0,2013-05-03 00:08:00,
2013-05-02 19:13:00,48.3,31.0,30.37,NW,320,10.0,-999.0,51,0.00,,,0.04,WeatherSnoop3.0,2013-05-03 00:13:00,
2013-05-02 19:18:00,48.0,31.2,30.36,NNE,23,7.0,-999.0,52,0.00,,,0.04,WeatherSnoop3.0,2013-05-03 00:18:00,
2013-05-02 19:23:00,47.6,30.9,30.36,NE,43,6.0,-999.0,52,0.00,,,0.04,WeatherSnoop3.0,2013-05-03 00:23:00,
2013-05-02 19:28:00,47.3,31.0,30.37,NE,39,9.0,-999.0,53,0.00,,,0.04,WeatherSnoop3.0,2013-05-03 00:28:00,
2013-05-02 19:33:00,47.0,31.7,30.36,NNE,15,4.0,-999.0,55,0.00,,,0.04,WeatherSnoop3.0,2013-05-03 00:33:00,
2013-05-02 19:38:00,46.7,31.8,30.36,ENE,65,6.0,-999.0,56,0.00,,,0.04,WeatherSnoop3.0,2013-05-03 00:38:00,
2013-05-02 19:43:00,46.6,31.8,30.37,North,8,5.0,-999.0,56,0.00,,,0.04,WeatherSnoop3.0,2013-05-03 00:43:00,
2013-05-02 19:48:00,46.3,31.5,30.37,North,352,6.0,-999.0,56,0.00,,,0.04,WeatherSnoop3.0,2013-05-03 00:48:00,
2013-05-02 19:53:00,45.9,31.5,30.37,ENE,57,9.0,-999.0,57,0.00,,,0.04,WeatherSnoop3.0,2013-05-03 00:53:00,
2013-05-02 19:58:00,45.6,31.7,30.37,North,358,15.0,-999.0,58,0.00,,,0.04,WeatherSnoop3.0,2013-05-03 00:58:00,
2013-05-02 20:03:00,45.3,31.8,30.37,North,4,4.0,-999.0,59,0.00,,,0.04,WeatherSnoop3.0,2013-05-03 01:03:00,
2013-05-02 20:08:00,45.1,31.6,30.37,North,353,6.0,-999.0,59,0.00,,,0.04,WeatherSnoop3.0,2013-05-03 01:08:00,
2013-05-02 20:13:00,44.8,31.4,30.37,NNE,30,3.0,-999.0,59,0.00,,,0.04,WeatherSnoop3.0,2013-05-03 01:13:00,
2013-05-02 20:18:00,44.4,31.0,30.37,NE,39,6.0,-999.0,59,0.00,,,0.04,WeatherSnoop3.0,2013-05-03 01:18:00,
2013-05-02 20:23:00,44.2,31.2,30.37,NE,40,4.0,-999.0,60,0.00,,,0.04,WeatherSnoop3.0,2013-05-03 01:23:00,
2013-05-02 20:28:00,43.9,31.7,30.37,North,349,3.0,-999.0,62,0.00,,,0.04,WeatherSnoop3.0,2013-05-03 01:28:00,
2013-05-02 20:33:00,43.5,31.8,30.37,North,8,3.0,-999.0,63,0.00,,,0.04,WeatherSnoop3.0,2013-05-03 01:33:00,
2013-05-02 20:38:00,43.0,32.4,30.37,NNE,13,5.0,-999.0,66,0.00,,,0.04,WeatherSnoop3.0,2013-05-03 01:38:00,
2013-05-02 20:43:00,42.5,32.3,30.37,NNE,15,2.0,-999.0,67,0.00,,,0.04,WeatherSnoop3.0,2013-05-03 01:43:00,
2013-05-02 20:48:00,42.2,32.8,30.37,NNE,15,0.0,-999.0,69,0.00,,,0.04,WeatherSnoop3.0,2013-05-03 01:48:00,
2013-05-02 20:53:00,41.8,32.7,30.38,NNW,333,3.0,-999.0,70,0.00,,,0.04,WeatherSnoop3.0,2013-05-03 01:53:00,
2013-05-02 20:58:00,41.7,33.0,30.38,NNE,17,4.0,-999.0,71,0.00,,,0.04,WeatherSnoop3.0,2013-05-03 01:58:00,
2013-05-02 21:03:00,41.5,32.8,30.37,North,351,1.0,-999.0,71,0.00,,,0.04,WeatherSnoop3.0,2013-05-03 02:03:00,
2013-05-02 21:08:00,41.4,32.7,30.38,NE,39,1.0,-999.0,71,0.00,,,0.04,WeatherSnoop3.0,2013-05-03 02:08:00,
2013-05-02 21:13:00,41.3,32.6,30.37,North,4,3.0,-999.0,71,0.00,,,0.04,WeatherSnoop3.0,2013-05-03 02:13:00,
2013-05-02 21:18:00,41.2,32.9,30.37,NNW,342,1.0,-999.0,72,0.00,,,0.04,WeatherSnoop3.0,2013-05-03 02:18:00,
2013-05-02 21:23:00,41.0,32.7,30.37,NNE,17,2.0,-999.0,72,0.00,,,0.04,WeatherSnoop3.0,2013-05-03 02:23:00,
2013-05-02 21:28:00,40.7,32.4,30.38,NNE,25,2.0,-999.0,72,0.00,,,0.04,WeatherSnoop3.0,2013-05-03 02:28:00,
2013-05-02 21:33:00,40.5,32.5,30.38,North,354,1.0,-999.0,73,0.00,,,0.04,WeatherSnoop3.0,2013-05-03 02:33:00,
2013-05-02 21:38:00,40.2,32.6,30.37,NNW,344,0.0,-999.0,74,0.00,,,0.04,WeatherSnoop3.0,2013-05-03 02:38:00,
2013-05-02 21:43:00,39.9,32.6,30.37,North,5,1.0,-999.0,75,0.00,,,0.04,WeatherSnoop3.0,2013-05-03 02:43:00,
2013-05-02 21:48:00,39.4,32.1,30.37,NNW,338,0.0,-999.0,75,0.00,,,0.04,WeatherSnoop3.0,2013-05-03 02:48:00,
2013-05-02 21:53:00,38.9,32.3,30.37,North,4,0.0,-999.0,77,0.00,,,0.04,WeatherSnoop3.0,2013-05-03 02:53:00,
2013-05-02 21:58:00,38.5,32.6,30.37,NNE,19,0.0,-999.0,79,0.00,,,0.04,WeatherSnoop3.0,2013-05-03 02:58:00,
2013-05-02 22:03:00,38.0,32.4,30.37,NNE,19,0.0,-999.0,80,0.00,,,0.04,WeatherSnoop3.0,2013-05-03 03:03:00,
2013-05-02 22:08:00,37.6,32.6,30.37,NNE,15,0.0,-999.0,82,0.00,,,0.04,WeatherSnoop3.0,2013-05-03 03:08:00,
2013-05-02 22:13:00,37.1,32.4,30.37,NNE,19,0.0,-999.0,83,0.00,,,0.04,WeatherSnoop3.0,2013-05-03 03:13:00,
2013-05-02 22:18:00,36.8,32.4,30.37,NNE,20,0.0,-999.0,84,0.00,,,0.04,WeatherSnoop3.0,2013-05-03 03:18:00,
2013-05-02 22:23:00,36.5,32.1,30.37,NNE,19,0.0,-999.0,84,0.00,,,0.04,WeatherSnoop3.0,2013-05-03 03:23:00,
2013-05-02 22:28:00,36.2,32.1,30.37,NNE,19,0.0,-999.0,85,0.00,,,0.04,WeatherSnoop3.0,2013-05-03 03:28:00,
2013-05-02 22:33:00,35.9,32.1,30.37,NNE,19,0.0,-999.0,86,0.00,,,0.04,WeatherSnoop3.0,2013-05-03 03:33:00,
2013-05-02 22:38:00,35.7,31.9,30.37,NNE,27,0.0,-999.0,86,0.00,,,0.04,WeatherSnoop3.0,2013-05-03 03:38:00,
2013-05-02 22:43:00,35.8,31.7,30.37,NNE,20,0.0,-999.0,85,0.00,,,0.04,WeatherSnoop3.0,2013-05-03 03:43:00,
2013-05-02 22:48:00,35.8,31.7,30.36,North,10,0.0,-999.0,85,0.00,,,0.04,WeatherSnoop3.0,2013-05-03 03:48:00,
2013-05-02 22:53:00,35.6,31.8,30.36,North,10,0.0,-999.0,86,0.00,,,0.04,WeatherSnoop3.0,2013-05-03 03:53:00,
2013-05-02 22:58:00,35.3,31.8,30.36,North,11,0.0,-999.0,87,0.00,,,0.04,WeatherSnoop3.0,2013-05-03 03:58:00,
2013-05-02 23:01:00,35.1,31.6,30.36,North,10,0.0,-999.0,87,0.00,,,0.04,WeatherSnoop3.0,2013-05-03 04:01:00,
2013-05-02 23:03:00,35.0,31.5,30.36,North,11,0.0,-999.0,87,0.00,,,0.04,WeatherSnoop3.0,2013-05-03 04:03:00,
2013-05-02 23:07:00,34.7,31.2,30.36,North,11,0.0,-999.0,87,0.00,,,0.04,WeatherSnoop3.0,2013-05-03 04:07:00,
2013-05-02 23:09:00,34.6,31.4,30.36,North,11,0.0,-999.0,88,0.00,,,0.04,WeatherSnoop3.0,2013-05-03 04:09:00,
2013-05-02 23:14:00,34.5,31.6,30.36,North,10,0.0,-999.0,89,0.00,,,0.04,WeatherSnoop3.0,2013-05-03 04:14:00,
2013-05-02 23:19:00,34.6,32.0,30.35,North,11,0.0,-999.0,90,0.00,,,0.04,WeatherSnoop3.0,2013-05-03 04:19:00,
2013-05-02 23:24:00,34.7,31.8,30.36,North,8,0.0,-999.0,89,0.00,,,0.04,WeatherSnoop3.0,2013-05-03 04:24:00,
2013-05-02 23:29:00,34.6,31.7,30.35,North,8,0.0,-999.0,89,0.00,,,0.04,WeatherSnoop3.0,2013-05-03 04:29:00,
2013-05-02 23:34:00,34.4,31.5,30.35,North,8,0.0,-999.0,89,0.00,,,0.04,WeatherSnoop3.0,2013-05-03 04:34:00,
2013-05-02 23:39:00,34.2,31.6,30.35,North,8,0.0,-999.0,90,0.00,,,0.04,WeatherSnoop3.0,2013-05-03 04:39:00,
2013-05-02 23:44:00,34.1,31.5,30.35,North,8,0.0,-999.0,90,0.00,,,0.04,WeatherSnoop3.0,2013-05-03 04:44:00,
2013-05-02 23:49:00,34.0,31.7,30.35,North,8,0.0,-999.0,91,0.00,,,0.04,WeatherSnoop3.0,2013-05-03 04:49:00,
2013-05-02 23:54:00,34.0,31.7,30.35,North,8,0.0,-999.0,91,0.00,,,0.04,WeatherSnoop3.0,2013-05-03 04:54:00,
2013-05-02 23:59:00,34.2,31.6,30.35,North,11,0.0,-999.0,90,0.00,,,0.04,WeatherSnoop3.0,2013-05-03 04:59:00,